Terminal Aerodrome Forecast
Issued by NWS Amarillo, TX

Current Version | Previous Version | Text Only | Print | Product List | Glossary Off
Versions: 1 2 3 4 5 6 7 8 9 10 11 12 13 14 15 16 17 18 19 20

000
FTUS44 KAMA 270800 AAB
TAFAMA
TAF AMD
KAMA 270832Z 2709/2806 04015KT 6SM -RA OVC006
     FM271800 02024G34KT 4SM -SHRA BR OVC006
     FM280000 01018KT P6SM SCT015 BKN025=

USA.gov is the U.S. government's official web portal to all federal, state and local government web resources and services.